METAR AND TAF INFORMATION
METAR FOR SBSP
ADDS - METARS form results

(2046 UTC 21 May 2018)
Data provider http://aviationweather.gov/adds/metars/
 
METAR text: SBSP 212000Z 31003KT CAVOK 20/04 Q1019
Conditions at: SBSP (SAO PAULO/CONGON, BR) observed 2000 UTC 21 May 2018
Temperature: 20.0°C (68°F)
Dewpoint: 4.0°C (39°F) [RH = 35%]
Pressure (altimeter): 30.09 inches Hg (1019.0 mb)
Winds: from the NW (310 degrees) at 3 MPH (3 knots; 1.6 m/s)
Visibility: 6 or more miles (10+ km)
Ceiling: ceiling and visibility are OK
Clouds: unknown
Weather: no significant weather observed at this time

Forecast for: SBSP (SAO PAULO/CONGON, BR)
Text: TAF SBSP 211600Z 2118/2218 32005KT CAVOK TN10/2209Z TX23/2217Z
Forecast period: 1800 to 1900 UTC 21 May 2018
Forecast type: FROM: standard forecast or significant change
Winds: from the NW (320 degrees) at 6 MPH (5 knots; 2.6 m/s)
Visibility: 6 or more miles (10+ km)
Clouds: not forecast
Weather: no significant weather forecast for this period
Forecast for: SBSP (SAO PAULO/CONGON, BR)
Text: TAF SBSP 211600Z 2118/2218 32005KT CAVOK TN10/2209Z TX23/2217Z
Forecast period: 1800 to 1900 UTC 21 May 2018
Forecast type: FROM: standard forecast or significant change
Winds: from the NW (320 degrees) at 6 MPH (5 knots; 2.6 m/s)
Visibility: 6 or more miles (10+ km)
Clouds: not forecast
Weather: no significant weather forecast for this period
Forecast for: SBSP (SAO PAULO/CONGON, BR)
Text: TAF SBSP 211600Z 2118/2218 32005KT CAVOK TN10/2209Z TX23/2217Z
Forecast period: 1900 to 2300 UTC 21 May 2018
Forecast type: BECOMING: Conditions expected to become as follows by 2100 UTC 21 May 2018
Winds: from the SSE (160 degrees) at 6 MPH (5 knots; 2.6 m/s)
Visibility: 6 or more miles (10+ km)
Weather: no significant weather forecast for this period
Forecast for: SBSP (SAO PAULO/CONGON, BR)
Text: TAF SBSP 211600Z 2118/2218 32005KT CAVOK TN10/2209Z TX23/2217Z
Forecast period: 1900 to 2300 UTC 21 May 2018
Forecast type: BECOMING: Conditions expected to become as follows by 2100 UTC 21 May 2018
Winds: from the SSE (160 degrees) at 6 MPH (5 knots; 2.6 m/s)
Visibility: 6 or more miles (10+ km)
Weather: no significant weather forecast for this period
Forecast for: SBSP (SAO PAULO/CONGON, BR)
Text: TAF SBSP 211600Z 2118/2218 32005KT CAVOK TN10/2209Z TX23/2217Z
Forecast period: 2300 UTC 21 May 2018 to 1200 UTC 22 May 2018
Forecast type: BECOMING: Conditions expected to become as follows by 0100 UTC 22 May 2018
Winds: from the ENE (60 degrees) at 6 MPH (5 knots; 2.6 m/s)
Visibility: 6 or more miles (10+ km)
Weather: no significant weather forecast for this period
Forecast for: SBSP (SAO PAULO/CONGON, BR)
Text: TAF SBSP 211600Z 2118/2218 32005KT CAVOK TN10/2209Z TX23/2217Z
Forecast period: 2300 UTC 21 May 2018 to 1200 UTC 22 May 2018
Forecast type: BECOMING: Conditions expected to become as follows by 0100 UTC 22 May 2018
Winds: from the ENE (60 degrees) at 6 MPH (5 knots; 2.6 m/s)
Visibility: 6 or more miles (10+ km)
Weather: no significant weather forecast for this period
Forecast for: SBSP (SAO PAULO/CONGON, BR)
Text: TAF SBSP 211600Z 2118/2218 32005KT CAVOK TN10/2209Z TX23/2217Z
Forecast period: 1200 to 1800 UTC 22 May 2018
Forecast type: BECOMING: Conditions expected to become as follows by 1400 UTC 22 May 2018
Winds: from the WNW (300 degrees) at 6 MPH (5 knots; 2.6 m/s)
Visibility: 6 or more miles (10+ km)
Clouds: few clouds at 4000 feet AGL
Weather: no significant weather forecast for this period
Forecast for: SBSP (SAO PAULO/CONGON, BR)
Text: TAF SBSP 211600Z 2118/2218 32005KT CAVOK TN10/2209Z TX23/2217Z
Forecast period: 1200 to 1800 UTC 22 May 2018
Forecast type: BECOMING: Conditions expected to become as follows by 1400 UTC 22 May 2018
Winds: from the WNW (300 degrees) at 6 MPH (5 knots; 2.6 m/s)
Visibility: 6 or more miles (10+ km)
Clouds: few clouds at 4000 feet AGL
Weather: no significant weather forecast for this period

 AIRPORT MAP

 RUNWAY INFORMATION
Runway 17L Runway length 4708 ft Runway width 148 ft
Runway elevation 0 ft Runway displaced threshold 0 ft Runway heading 0
Runway 35R Runway length 4708 ft Runway width 148 ft
Runway elevation 0 ft Runway displaced threshold 0 ft Runway heading 0
Runway 17R Runway length 6365 ft Runway width 148 ft
Runway elevation 0 ft Runway displaced threshold 0 ft Runway heading 0
Runway 35L Runway length 6365 ft Runway width 148 ft
Runway elevation 0 ft Runway displaced threshold 0 ft Runway heading 0

 AIRPORT FREQUENCIES
Type APP Name SAO PAULO Frequency 119.8 MHZ
Type ATIS Name ATIS Frequency 127.65 MHZ
Type CLD Name CLNC DEL Frequency 120.6 MHZ
Type GND Name GND Frequency 121.9 MHZ
Type TWR Name SAO PAULO Frequency 127.15 MHZ

 AIRPORT NEAR NAVIGATION AIDS
Type VOR-DME Name Congonhas Frequency 116900 KHZ
Type NDB Name Diadema Frequency 200 KHZ
Type NDB Name Mada Frequency 290 KHZ
Type NDB Name Metro Frequency 330 KHZ
Type NDB Name Sao Paulo Frequency 250 KHZ



Powered by Virtual Airlines Manager [v2.6.2]